Time;durP1;ratioP1;P1;durP2;ratioP2;P2;SDS_P1;SDS_P2;PMS_P1;PMS_P2;Temp;Humidity;BMP_temperature;BMP_pressure;BME280_temperature;BME280_humidity;BME280_pressure;Samples;Min_cycle;Max_cycle;Signal;HPM_P1;HPM_P2
2022/01/27 00:02:49;;;;;;;;;65.50;51.25;;;;;6.09;63.76;103181.41;5150492;27;49468;-76
2022/01/27 00:05:23;;;;;;;;;65.50;54.00;;;;;5.95;63.99;103146.44;5146184;27;49751;-77
2022/01/27 00:08:08;;;;;;;;;57.25;45.25;;;;;6.09;63.86;103170.97;5137624;27;49270;-77
2022/01/27 00:13:09;;;;;;;;;66.25;48.50;;;;;6.20;64.65;103177.94;5131383;27;49858;-77
2022/01/27 00:15:35;;;;;;;;;60.25;49.75;;;;;6.11;63.64;103167.69;5126425;27;49774;-77
2022/01/27 00:18:07;;;;;;;;;64.25;51.75;;;;;5.93;63.51;103124.53;5121325;27;49592;-78
2022/01/27 00:20:33;;;;;;;;;55.25;45.50;;;;;5.49;63.61;103051.59;5124920;27;50520;-77
2022/01/27 00:22:58;;;;;;;;;58.75;46.25;;;;;6.14;63.60;103151.34;5124319;27;49648;-76
2022/01/27 00:25:23;;;;;;;;;64.25;49.75;;;;;5.71;63.09;103077.66;5128074;27;49732;-77
2022/01/27 00:27:49;;;;;;;;;60.50;45.75;;;;;5.84;63.57;103087.31;5123990;27;49688;-77
2022/01/27 00:30:14;;;;;;;;;58.00;47.00;;;;;6.16;63.18;103139.34;5107558;27;51653;-77
2022/01/27 00:32:40;;;;;;;;;59.75;46.75;;;;;6.11;62.97;103132.88;5142949;27;49863;-76
2022/01/27 00:35:06;;;;;;;;;57.25;45.00;;;;;5.70;63.39;103052.38;5143343;27;49618;-77
2022/01/27 00:37:32;;;;;;;;;56.50;45.00;;;;;6.21;62.80;103138.91;5129107;27;49310;-78
2022/01/27 00:39:57;;;;;;;;;57.75;46.00;;;;;6.00;63.15;103117.31;5141116;27;50392;-77
2022/01/27 00:42:27;;;;;;;;;52.25;43.75;;;;;5.99;63.49;103098.97;5148431;27;49835;-78
2022/01/27 00:44:53;;;;;;;;;62.50;49.75;;;;;6.25;63.70;103134.81;5143892;27;49942;-78
2022/01/27 00:47:19;;;;;;;;;50.50;42.75;;;;;5.34;63.13;102970.59;5147349;27;49733;-78
2022/01/27 00:49:44;;;;;;;;;61.50;48.00;;;;;6.27;63.36;103130.63;5140141;27;49739;-77
2022/01/27 00:52:15;;;;;;;;;62.50;45.75;;;;;5.51;62.66;102997.94;5146170;27;49472;-78
2022/01/27 00:54:42;;;;;;;;;57.75;46.50;;;;;6.06;62.71;103097.72;5147783;27;49729;-78
2022/01/27 00:57:26;;;;;;;;;56.50;46.75;;;;;6.06;63.00;103095.09;5143907;27;49729;-76
2022/01/27 00:59:58;;;;;;;;;52.75;45.50;;;;;5.90;63.77;103056.50;5149410;27;49799;-78
2022/01/27 01:07:35;;;;;;;;;66.25;45.00;;;;;5.75;63.04;103027.56;5143268;27;49128;-77
2022/01/27 01:15:33;;;;;;;;;52.75;43.00;;;;;5.85;62.98;103039.59;5115678;27;49715;-78
2022/01/27 01:20:44;;;;;;;;;57.75;45.75;;;;;6.14;63.92;103081.84;5143093;27;51558;-78
2022/01/27 01:33:56;;;;;;;;;50.00;40.50;;;;;6.15;63.10;103072.31;5129495;27;49282;-75
2022/01/27 01:36:36;;;;;;;;;54.25;43.25;;;;;6.22;63.29;103095.47;5123444;27;49453;-76
2022/01/27 01:39:06;;;;;;;;;56.50;45.75;;;;;5.98;62.97;103034.53;5129106;27;49176;-77
2022/01/27 01:41:32;;;;;;;;;59.00;44.00;;;;;6.10;62.74;103050.22;5124990;27;49938;-76
2022/01/27 01:43:58;;;;;;;;;44.75;38.50;;;;;6.21;62.82;103062.38;5122320;27;49771;-77
2022/01/27 01:46:24;;;;;;;;;44.25;40.00;;;;;6.00;63.51;103026.06;5126822;27;49318;-79
2022/01/27 01:48:49;;;;;;;;;51.50;40.00;;;;;5.99;63.29;103019.03;5125183;27;49598;-77
2022/01/27 01:51:24;;;;;;;;;52.25;41.25;;;;;5.88;63.24;102992.88;5114563;27;50979;-76
2022/01/27 01:53:50;;;;;;;;;44.25;40.00;;;;;5.81;62.99;102998.47;5117671;27;49768;-77
2022/01/27 01:56:15;;;;;;;;;54.75;44.50;;;;;5.83;62.65;103000.38;5114279;27;50236;-76
2022/01/27 01:58:41;;;;;;;;;55.50;44.25;;;;;5.98;63.26;103021.50;5118164;27;49605;-76
2022/01/27 02:01:06;;;;;;;;;53.75;44.75;;;;;5.95;63.73;103008.25;5116704;27;51356;-76
2022/01/27 02:03:31;;;;;;;;;45.75;41.50;;;;;6.11;63.13;103025.97;5118551;27;49700;-75
2022/01/27 02:05:58;;;;;;;;;49.75;42.00;;;;;6.00;63.27;103005.22;5112363;27;49763;-76
2022/01/27 02:19:24;;;;;;;;;61.75;48.75;;;;;6.26;63.07;103034.91;5117721;27;49861;-76
2022/01/27 02:22:03;;;;;;;;;52.50;44.75;;;;;6.10;63.57;103014.63;5113738;27;50844;-77
2022/01/27 02:24:35;;;;;;;;;53.00;42.25;;;;;6.08;63.32;103004.84;5118502;27;49634;-77
2022/01/27 02:27:02;;;;;;;;;61.25;48.00;;;;;6.01;63.40;102985.25;5120142;27;49615;-76
2022/01/27 02:29:27;;;;;;;;;63.25;46.00;;;;;6.07;63.78;103001.34;5115765;27;49822;-76
2022/01/27 02:31:55;;;;;;;;;57.75;43.25;;;;;6.40;63.49;103047.28;5136894;27;49653;-75
2022/01/27 02:34:21;;;;;;;;;55.50;44.75;;;;;6.42;63.88;103048.31;5138908;27;49561;-76
2022/01/27 02:36:47;;;;;;;;;57.75;46.00;;;;;6.41;63.18;103043.88;5139750;27;49651;-77
2022/01/27 02:39:13;;;;;;;;;49.75;42.00;;;;;5.89;63.42;102958.25;5139200;27;49725;-77
2022/01/27 02:41:44;;;;;;;;;58.00;47.75;;;;;6.46;63.66;103044.22;5140220;27;50302;-76
2022/01/27 02:44:19;;;;;;;;;62.50;49.50;;;;;6.45;63.28;103043.31;5137915;27;49729;-73
2022/01/27 02:46:45;;;;;;;;;57.75;46.25;;;;;6.43;63.21;103029.25;5134833;27;49788;-77
2022/01/27 02:49:11;;;;;;;;;54.75;45.25;;;;;6.22;62.78;102988.53;5137107;27;49953;-77
2022/01/27 02:51:37;;;;;;;;;50.25;42.25;;;;;6.48;63.57;103034.81;5143544;27;50939;-76
2022/01/27 02:54:04;;;;;;;;;61.00;47.75;;;;;6.18;63.39;102983.91;5098783;27;49862;-77
2022/01/27 02:56:31;;;;;;;;;62.25;46.50;;;;;6.32;63.15;103007.59;5117249;27;49841;-78
2022/01/27 02:58:57;;;;;;;;;56.50;45.50;;;;;6.18;63.15;102979.59;5123705;27;50020;-78
2022/01/27 03:01:22;;;;;;;;;61.75;44.00;;;;;6.30;63.09;103003.97;5124410;27;50524;-76
2022/01/27 03:03:48;;;;;;;;;56.25;44.25;;;;;6.47;62.80;103027.78;5118114;27;49722;-77
2022/01/27 03:06:14;;;;;;;;;55.75;44.00;;;;;6.32;62.77;103001.47;5125211;27;49471;-76
2022/01/27 03:08:40;;;;;;;;;52.00;41.50;;;;;6.08;63.40;102953.63;5125217;27;49910;-76
2022/01/27 03:11:18;;;;;;;;;54.75;46.25;;;;;6.24;63.52;102979.13;5118979;27;50244;-75
2022/01/27 03:13:43;;;;;;;;;63.50;48.00;;;;;6.27;63.70;102989.78;5116816;27;49793;-75
2022/01/27 03:16:09;;;;;;;;;54.25;40.50;;;;;5.31;63.23;102821.91;5119039;27;49971;-75
2022/01/27 03:18:35;;;;;;;;;61.25;50.75;;;;;5.88;63.24;102923.41;5122242;27;49799;-75
2022/01/27 03:21:01;;;;;;;;;65.00;50.50;;;;;6.31;62.97;103000.56;5120423;27;50366;-74
2022/01/27 03:23:27;;;;;;;;;64.00;46.75;;;;;6.23;63.23;102996.47;5122075;27;49910;-74
2022/01/27 03:25:52;;;;;;;;;55.00;40.50;;;;;6.23;63.75;102990.34;5122732;27;49694;-74
2022/01/27 03:28:20;;;;;;;;;60.50;45.25;;;;;6.38;63.79;103014.97;5121197;27;49744;-74
2022/01/27 03:30:45;;;;;;;;;53.50;43.00;;;;;6.21;63.97;102990.25;5118654;27;51014;-73
2022/01/27 03:33:10;;;;;;;;;52.75;42.25;;;;;6.05;63.95;102963.81;5117563;27;49820;-74
2022/01/27 03:35:36;;;;;;;;;59.75;47.50;;;;;6.14;62.95;102979.25;5119992;27;49757;-74
2022/01/27 03:38:01;;;;;;;;;64.50;48.50;;;;;6.15;64.13;102984.56;5120887;27;49482;-75
2022/01/27 03:40:26;;;;;;;;;60.25;43.75;;;;;6.38;63.83;103017.59;5113677;27;50867;-74
2022/01/27 03:43:03;;;;;;;;;47.00;40.00;;;;;6.03;63.58;102970.63;5116411;27;50051;-74
2022/01/27 03:45:29;;;;;;;;;59.25;46.50;;;;;6.16;63.73;102986.38;5118127;27;49650;-77
2022/01/27 03:47:55;;;;;;;;;59.75;44.25;;;;;6.02;64.30;102956.69;5120202;27;49825;-76
2022/01/27 03:50:21;;;;;;;;;60.25;48.50;;;;;6.21;63.93;102987.63;5122860;27;49829;-76
2022/01/27 03:52:46;;;;;;;;;56.50;44.25;;;;;6.40;63.59;103012.47;5118382;27;50164;-76
2022/01/27 03:55:11;;;;;;;;;62.50;48.50;;;;;6.25;63.45;102981.84;5128098;27;49673;-77
2022/01/27 03:57:37;;;;;;;;;60.00;45.25;;;;;6.43;63.63;103012.69;5136568;27;49901;-76
2022/01/27 04:00:05;;;;;;;;;59.50;48.75;;;;;6.44;63.71;103011.88;5133297;27;50958;-78
2022/01/27 04:02:30;;;;;;;;;57.25;44.50;;;;;6.29;63.51;102983.00;5132006;27;49774;-75
2022/01/27 04:04:55;;;;;;;;;57.75;48.00;;;;;6.39;63.63;102992.41;5126525;27;50243;-75
2022/01/27 04:07:21;;;;;;;;;61.25;49.00;;;;;5.95;63.77;102919.59;5121200;27;49812;-77
2022/01/27 04:09:46;;;;;;;;;63.00;50.50;;;;;6.14;63.66;102951.47;5118773;27;50610;-77
2022/01/27 04:12:12;;;;;;;;;59.75;45.50;;;;;6.24;63.64;102974.81;5119476;27;49906;-77
2022/01/27 04:14:37;;;;;;;;;58.75;48.25;;;;;5.96;63.32;102919.72;5118545;27;50147;-78
2022/01/27 04:17:03;;;;;;;;;56.50;44.00;;;;;6.19;63.64;102951.81;5117533;27;49673;-78
2022/01/27 04:19:28;;;;;;;;;63.50;46.00;;;;;6.30;64.13;102985.69;5138545;27;49944;-77
2022/01/27 04:21:53;;;;;;;;;59.75;46.50;;;;;6.34;63.68;102979.00;5101068;27;49737;-76
2022/01/27 04:24:19;;;;;;;;;54.25;43.75;;;;;5.90;64.08;102894.88;5140906;27;50133;-76
2022/01/27 04:26:49;;;;;;;;;55.00;45.75;;;;;5.91;63.36;102907.16;5104865;27;49852;-76
2022/01/27 04:29:16;;;;;;;;;65.50;49.75;;;;;6.47;63.78;103006.91;5141246;27;49828;-74
2022/01/27 04:31:44;;;;;;;;;58.00;46.50;;;;;6.14;64.08;102945.34;5138195;27;49762;-75
2022/01/27 04:34:11;;;;;;;;;61.50;48.25;;;;;6.19;63.69;102954.41;5139724;27;49774;-75
2022/01/27 04:36:38;;;;;;;;;58.00;45.25;;;;;6.42;64.32;102998.72;5138153;27;49762;-77
2022/01/27 04:39:15;;;;;;;;;54.50;42.00;;;;;6.13;63.77;102936.59;5138562;27;50735;-74
2022/01/27 04:44:17;;;;;;;;;60.50;50.00;;;;;6.36;64.11;102986.94;5139377;27;49939;-75
2022/01/27 04:47:33;;;;;;;;;63.00;46.00;;;;;6.24;63.61;102960.88;5139310;27;49631;-74
2022/01/27 04:49:28;;;;;;;;;61.75;49.75;;;;;5.53;63.52;102819.19;5120829;27;50297;-77
2022/01/27 04:51:54;;;;;;;;;58.00;45.25;;;;;6.23;63.68;102949.53;5141029;27;49818;-76
2022/01/27 04:54:29;;;;;;;;;58.75;47.00;;;;;6.56;64.02;102997.13;5139308;27;49775;-75
2022/01/27 04:56:58;;;;;;;;;61.00;47.00;;;;;6.24;63.74;102943.50;5138751;27;49661;-74
2022/01/27 04:59:27;;;;;;;;;58.50;46.25;;;;;6.39;64.25;102963.69;5138881;27;50945;-75
2022/01/27 05:02:04;;;;;;;;;58.75;46.50;;;;;6.32;63.55;102951.91;5138382;27;49977;-75
2022/01/27 05:04:33;;;;;;;;;63.00;43.50;;;;;6.45;63.85;102992.81;5140594;27;50109;-75
2022/01/27 05:06:59;;;;;;;;;56.50;45.00;;;;;6.28;64.61;102958.59;5117015;27;49727;-74
2022/01/27 05:09:24;;;;;;;;;50.50;38.00;;;;;6.38;63.54;102956.66;5144662;27;49972;-74
2022/01/27 05:14:19;;;;;;;;;55.00;46.00;;;;;6.35;63.87;102936.47;5145905;27;49682;-75
2022/01/27 05:16:45;;;;;;;;;54.00;45.50;;;;;6.46;64.59;102961.63;5146813;27;49622;-76
2022/01/27 05:19:10;;;;;;;;;56.00;45.75;;;;;6.41;63.45;102952.56;5150518;27;50444;-76
2022/01/27 05:21:37;;;;;;;;;61.00;47.75;;;;;6.59;64.30;102986.91;5110431;27;49681;-75
2022/01/27 05:24:03;;;;;;;;;63.00;46.50;;;;;6.21;63.78;102906.78;5147896;27;49274;-76
2022/01/27 05:26:29;;;;;;;;;54.00;43.25;;;;;6.19;63.53;102905.78;5140721;27;50068;-75
2022/01/27 05:28:55;;;;;;;;;56.50;44.25;;;;;6.49;62.84;102960.97;5120313;27;51793;-76
2022/01/27 05:31:20;;;;;;;;;56.25;46.25;;;;;6.45;63.22;102970.25;5130107;27;49555;-75
2022/01/27 05:33:46;;;;;;;;;45.25;39.75;;;;;6.49;64.11;102971.41;5124760;27;49559;-75
2022/01/27 05:36:11;;;;;;;;;50.75;40.75;;;;;6.34;64.15;102928.53;5118515;27;49709;-76
2022/01/27 05:38:37;;;;;;;;;58.25;44.75;;;;;6.38;63.38;102952.34;5125874;27;49916;-77
2022/01/27 05:41:03;;;;;;;;;65.50;45.75;;;;;6.23;63.63;102910.41;5124642;27;49474;-75
2022/01/27 05:43:29;;;;;;;;;57.25;45.50;;;;;6.60;63.72;102978.28;5127640;27;49554;-74
2022/01/27 05:45:54;;;;;;;;;44.50;39.50;;;;;6.51;63.70;102959.34;5125621;27;49430;-75
2022/01/27 05:48:20;;;;;;;;;62.00;45.75;;;;;6.37;63.52;102942.72;5130844;27;49700;-75
2022/01/27 05:50:45;;;;;;;;;54.25;44.00;;;;;6.60;63.29;102986.13;5125954;27;49386;-76
2022/01/27 05:53:11;;;;;;;;;56.50;44.25;;;;;6.46;63.28;102964.22;5125079;27;49701;-76
2022/01/27 05:55:36;;;;;;;;;52.50;42.25;;;;;6.53;63.53;102978.63;5127299;27;49341;-76
2022/01/27 05:58:02;;;;;;;;;50.50;42.00;;;;;6.46;63.75;102968.53;5122486;27;49985;-76
2022/01/27 06:00:27;;;;;;;;;48.25;41.25;;;;;6.61;63.70;102977.50;5125641;27;49282;-75
2022/01/27 06:02:54;;;;;;;;;49.50;41.00;;;;;6.59;63.23;102979.09;5141000;27;49777;-76
2022/01/27 06:05:29;;;;;;;;;51.50;44.75;;;;;6.42;63.48;102959.59;5124358;27;49879;-78
2022/01/27 06:07:54;;;;;;;;;48.50;41.50;;;;;6.56;63.07;102990.22;5122457;27;49841;-76
2022/01/27 06:10:23;;;;;;;;;46.00;40.00;;;;;6.57;64.00;103001.56;5129986;27;49601;-77
2022/01/27 06:12:51;;;;;;;;;46.50;39.25;;;;;6.46;63.97;102973.75;5127164;27;49571;-76
2022/01/27 06:15:17;;;;;;;;;51.00;38.75;;;;;6.44;63.24;102978.88;5130147;27;49446;-78
2022/01/27 06:17:42;;;;;;;;;50.75;41.50;;;;;6.12;63.13;102921.75;5125123;27;50304;-77
2022/01/27 06:20:08;;;;;;;;;44.00;40.50;;;;;6.39;64.12;102966.31;5125029;27;49737;-75
2022/01/27 06:22:33;;;;;;;;;42.00;38.50;;;;;6.52;63.37;102982.03;5126996;27;49708;-77
2022/01/27 06:24:59;;;;;;;;;53.50;42.50;;;;;6.62;63.68;103001.88;5129421;27;49791;-77
2022/01/27 06:27:25;;;;;;;;;58.00;45.00;;;;;6.59;63.84;103002.56;5123978;27;50785;-78
2022/01/27 06:29:51;;;;;;;;;45.25;39.00;;;;;6.38;63.81;102961.88;5133351;27;49458;-76
2022/01/27 06:32:16;;;;;;;;;53.50;41.25;;;;;6.58;63.29;103004.28;5129542;27;49587;-76
2022/01/27 06:34:41;;;;;;;;;57.25;42.75;;;;;6.39;63.96;102979.34;5125126;27;49626;-77
2022/01/27 06:37:07;;;;;;;;;47.75;42.00;;;;;6.17;63.72;102946.44;5121628;27;51591;-75
2022/01/27 06:39:33;;;;;;;;;58.75;45.50;;;;;6.28;64.18;102976.88;5127076;27;49717;-75
2022/01/27 06:42:01;;;;;;;;;55.75;45.00;;;;;6.46;64.13;102995.53;5127973;27;49596;-76
2022/01/27 06:44:26;;;;;;;;;43.50;39.00;;;;;6.36;63.76;102974.78;5131320;27;49608;-77
2022/01/27 06:46:52;;;;;;;;;58.25;45.75;;;;;6.41;64.26;102990.81;5123412;27;51158;-76
2022/01/27 06:49:17;;;;;;;;;46.25;39.75;;;;;6.35;63.97;102967.75;5114739;27;49742;-77
2022/01/27 06:51:46;;;;;;;;;51.25;42.00;;;;;6.45;64.01;102985.00;5114363;27;49821;-77
2022/01/27 06:54:16;;;;;;;;;60.25;44.25;;;;;6.42;63.95;102977.84;5134957;27;49862;-74
2022/01/27 06:56:42;;;;;;;;;53.00;41.50;;;;;6.63;63.48;103007.22;5137392;27;50261;-74
2022/01/27 06:59:07;;;;;;;;;43.00;38.25;;;;;6.48;63.90;102983.53;5134212;27;49838;-72
2022/01/27 07:01:32;;;;;;;;;54.25;42.00;;;;;6.37;63.68;102970.47;5134506;27;49626;-68
2022/01/27 07:03:58;;;;;;;;;54.00;38.75;;;;;6.54;63.83;103001.31;5134931;27;49859;-69
2022/01/27 07:06:23;;;;;;;;;49.00;38.50;;;;;6.59;63.88;103013.91;5138023;27;49746;-70
2022/01/27 07:08:48;;;;;;;;;56.25;42.00;;;;;6.44;63.86;102977.97;5139258;27;49935;-69
2022/01/27 07:11:14;;;;;;;;;57.25;41.75;;;;;6.47;63.41;102997.38;5137254;27;49714;-69
2022/01/27 07:13:40;;;;;;;;;58.75;42.25;;;;;6.45;63.86;102998.94;5137262;27;50042;-69
2022/01/27 07:16:07;;;;;;;;;50.25;41.25;;;;;6.39;64.16;102989.78;5139075;27;50142;-71
2022/01/27 07:18:33;;;;;;;;;48.25;41.75;;;;;6.42;63.93;102998.72;5141752;27;49725;-70
2022/01/27 07:20:58;;;;;;;;;57.50;41.25;;;;;6.35;64.20;102983.41;5136226;27;49713;-69
2022/01/27 07:23:24;;;;;;;;;60.75;45.25;;;;;6.40;64.31;102999.41;5136113;27;49603;-69
2022/01/27 07:25:49;;;;;;;;;48.00;40.25;;;;;6.40;63.98;103007.25;5133683;27;49797;-69
2022/01/27 07:28:14;;;;;;;;;49.25;41.50;;;;;6.27;63.56;102977.66;5133886;27;49740;-72
2022/01/27 07:30:40;;;;;;;;;49.50;41.25;;;;;6.34;64.35;102983.31;5135690;27;50339;-67
2022/01/27 07:33:05;;;;;;;;;57.25;45.50;;;;;6.33;64.11;102982.41;5134207;27;49724;-68
2022/01/27 07:35:31;;;;;;;;;56.75;42.00;;;;;6.50;64.72;102992.38;5101263;27;51035;-62
2022/01/27 07:37:56;;;;;;;;;47.50;39.25;;;;;6.49;64.12;102982.75;5133601;27;49808;-64
2022/01/27 07:40:22;;;;;;;;;50.25;41.00;;;;;6.55;63.54;102988.38;5134403;27;49878;-65
2022/01/27 07:42:47;;;;;;;;;42.00;38.25;;;;;6.63;64.46;103007.22;5133284;27;50293;-69
2022/01/27 07:45:13;;;;;;;;;71.50;58.50;;;;;6.60;64.43;102999.16;5133156;27;49660;-68
2022/01/27 07:47:38;;;;;;;;;63.25;48.50;;;;;6.55;64.35;102992.69;5133676;27;50056;-68
2022/01/27 07:50:05;;;;;;;;;50.50;43.50;;;;;6.62;63.81;103000.19;5134145;27;49794;-67
2022/01/27 07:52:30;;;;;;;;;49.50;40.50;;;;;6.20;64.15;102936.28;5136565;27;49824;-68
2022/01/27 07:54:56;;;;;;;;;47.75;38.25;;;;;6.64;64.09;102998.59;5132312;27;50739;-68
2022/01/27 07:57:21;;;;;;;;;46.50;40.00;;;;;6.46;63.97;102982.50;5131598;27;49929;-69
2022/01/27 07:59:46;;;;;;;;;60.50;49.00;;;;;6.44;64.22;102964.91;5121676;27;49850;-69
2022/01/27 08:02:12;;;;;;;;;47.00;41.75;;;;;6.64;64.11;103000.28;5113815;27;49905;-71
2022/01/27 08:04:38;;;;;;;;;47.00;42.50;;;;;6.71;64.33;103029.56;5117524;27;49755;-68
2022/01/27 08:07:04;;;;;;;;;54.25;39.75;;;;;6.73;64.04;103011.38;5113477;27;50021;-69
2022/01/27 08:09:30;;;;;;;;;51.00;41.25;;;;;6.62;63.88;102997.56;5108324;27;50031;-73
2022/01/27 08:11:56;;;;;;;;;54.50;44.25;;;;;6.47;64.13;102955.63;5113672;27;49697;-68
2022/01/27 08:14:22;;;;;;;;;55.25;42.00;;;;;6.57;64.14;102980.69;5113010;27;50813;-71
2022/01/27 08:16:48;;;;;;;;;49.75;40.50;;;;;6.58;63.89;102974.66;5106882;27;50000;-71
2022/01/27 08:19:14;;;;;;;;;48.00;40.50;;;;;6.64;64.10;102982.91;5113249;27;49782;-70
2022/01/27 08:21:39;;;;;;;;;49.75;41.75;;;;;6.74;63.86;102997.53;5113251;27;49996;-71
2022/01/27 08:24:05;;;;;;;;;50.00;41.50;;;;;6.87;64.11;103011.59;5113309;27;49918;-71
2022/01/27 08:26:40;;;;;;;;;43.25;33.50;;;;;6.87;64.01;103009.00;5094717;27;49739;-71
2022/01/27 08:34:36;;;;;;;;;47.50;41.75;;;;;7.02;64.25;103029.16;5132796;27;50181;-70
2022/01/27 08:37:03;;;;;;;;;65.25;48.00;;;;;6.89;63.57;103006.47;5099833;27;49912;-70
2022/01/27 08:39:29;;;;;;;;;45.25;41.00;;;;;6.94;63.88;103004.19;5114185;27;49805;-71
2022/01/27 08:41:54;;;;;;;;;54.00;42.00;;;;;6.93;63.51;102989.31;5133199;27;49847;-71
2022/01/27 08:44:20;;;;;;;;;45.00;35.50;;;;;7.04;63.66;103004.03;5132477;27;50891;-70
2022/01/27 08:46:45;;;;;;;;;53.75;41.50;;;;;6.95;63.39;102965.16;5132540;27;49900;-70
2022/01/27 08:49:11;;;;;;;;;54.25;42.25;;;;;7.12;63.14;102990.72;5131631;27;49733;-70
2022/01/27 08:51:36;;;;;;;;;44.75;34.00;;;;;7.18;62.97;103000.72;5114654;27;49741;-70
2022/01/27 08:54:02;;;;;;;;;44.50;40.00;;;;;7.11;63.42;102978.47;5132571;27;49733;-70
2022/01/27 08:56:28;;;;;;;;;47.00;40.25;;;;;7.24;62.98;103002.81;5113597;27;50117;-70
2022/01/27 08:58:57;;;;;;;;;52.25;41.75;;;;;7.40;63.63;103016.16;5132455;27;49845;-71
2022/01/27 09:01:26;;;;;;;;;55.75;43.25;;;;;7.31;62.99;102994.63;5113392;27;49955;-70
2022/01/27 09:03:52;;;;;;;;;47.00;37.50;;;;;7.29;62.88;102972.72;5132265;27;50797;-70
2022/01/27 09:06:19;;;;;;;;;47.50;36.50;;;;;7.36;63.24;102973.25;5128273;27;50401;-70
2022/01/27 09:08:45;;;;;;;;;43.50;39.75;;;;;7.48;62.83;102988.84;5112751;27;49842;-70
2022/01/27 09:11:11;;;;;;;;;52.25;41.00;;;;;7.48;62.73;102986.25;5112668;27;49766;-71
2022/01/27 09:13:37;;;;;;;;;52.25;41.25;;;;;7.54;62.31;102973.59;5112084;27;50336;-70
2022/01/27 09:16:04;;;;;;;;;47.75;39.75;;;;;7.56;63.12;102952.78;5107380;27;49733;-70
2022/01/27 09:18:29;;;;;;;;;59.25;45.00;;;;;7.63;62.40;102952.41;5106572;27;49883;-70
2022/01/27 09:20:58;;;;;;;;;38.00;37.25;;;;;7.68;61.85;102949.28;5112580;27;49731;-70
2022/01/27 09:23:24;;;;;;;;;48.50;37.25;;;;;7.93;61.55;102992.78;5112121;27;49911;-70
2022/01/27 09:25:50;;;;;;;;;46.00;41.00;;;;;7.82;61.40;102976.38;5112482;27;49988;-70
2022/01/27 09:28:16;;;;;;;;;51.25;39.00;;;;;7.87;61.46;102980.19;5105445;27;49813;-71
2022/01/27 09:30:44;;;;;;;;;52.25;42.75;;;;;7.99;61.08;103001.03;5127241;27;49960;-70
2022/01/27 09:33:10;;;;;;;;;43.50;33.50;;;;;7.96;61.25;102980.81;5118950;27;51056;-69
2022/01/27 09:35:36;;;;;;;;;54.25;40.00;;;;;7.92;61.07;102949.13;5119819;27;49835;-70
2022/01/27 09:38:02;;;;;;;;;55.25;39.00;;;;;8.17;60.44;102988.25;5119808;27;50064;-67
2022/01/27 09:40:29;;;;;;;;;45.50;37.25;;;;;8.27;60.84;103003.75;5116812;27;49833;-70
2022/01/27 09:42:55;;;;;;;;;45.75;36.25;;;;;8.30;60.49;102996.13;5112171;27;49910;-73
2022/01/27 09:45:23;;;;;;;;;51.00;42.75;;;;;7.75;60.95;102900.94;5111226;27;49834;-72
2022/01/27 09:47:55;;;;;;;;;52.75;41.00;;;;;8.32;60.65;103008.50;5112903;27;49710;-71
2022/01/27 09:50:47;;;;;;;;;53.00;41.75;;;;;8.35;60.58;102994.75;5124544;27;49754;-72
2022/01/27 09:53:14;;;;;;;;;43.25;38.25;;;;;7.62;60.29;102865.22;5111656;27;50530;-72
2022/01/27 09:55:39;;;;;;;;;50.75;40.75;;;;;8.23;60.41;102963.41;5114151;27;49955;-71
2022/01/27 09:58:07;;;;;;;;;45.25;39.75;;;;;8.16;60.64;102937.66;5111457;27;49764;-73
2022/01/27 10:00:33;;;;;;;;;51.00;40.00;;;;;8.46;60.35;102977.13;5106642;27;49914;-68
2022/01/27 10:03:12;;;;;;;;;51.25;39.50;;;;;8.43;60.28;102969.97;5125327;27;51009;-68
2022/01/27 10:05:38;;;;;;;;;43.50;39.00;;;;;8.14;59.25;102900.03;5093438;27;49806;-67
2022/01/27 10:08:11;;;;;;;;;44.25;38.00;;;;;8.53;59.97;102955.75;5113059;27;49841;-68
2022/01/27 10:10:45;;;;;;;;;47.75;38.75;;;;;8.77;59.42;102973.00;5111948;27;50052;-68
2022/01/27 10:13:40;;;;;;;;;48.50;41.25;;;;;8.80;58.99;102972.34;5130810;27;51100;-66
2022/01/27 10:16:09;;;;;;;;;52.25;38.75;;;;;8.92;58.66;102973.09;5128112;27;49860;-66
2022/01/27 10:18:41;;;;;;;;;48.00;39.50;;;;;8.87;59.07;102958.78;5111627;27;49830;-67
2022/01/27 10:21:09;;;;;;;;;45.50;39.00;;;;;8.76;59.19;102941.50;5111711;27;50027;-67
2022/01/27 10:23:38;;;;;;;;;37.00;33.50;;;;;8.98;59.14;102980.44;5109537;27;50102;-67
2022/01/27 10:26:22;;;;;;;;;46.50;37.75;;;;;8.85;59.54;102969.19;5111376;27;49864;-67
2022/01/27 10:29:09;;;;;;;;;49.50;41.25;;;;;8.97;59.60;102971.66;5111009;27;49730;-67
2022/01/27 10:31:38;;;;;;;;;50.00;40.25;;;;;8.99;58.42;102967.44;5126994;27;49846;-68
2022/01/27 10:34:08;;;;;;;;;35.50;34.75;;;;;9.00;58.41;102976.19;5131092;27;50803;-68
2022/01/27 10:36:39;;;;;;;;;45.50;38.00;;;;;9.02;58.66;102967.63;5112507;27;49704;-68
2022/01/27 10:39:11;;;;;;;;;46.25;36.00;;;;;9.02;58.84;102972.84;5131221;27;49724;-66
2022/01/27 10:41:53;;;;;;;;;42.25;36.00;;;;;9.02;58.49;102957.13;5096109;27;49795;-67
2022/01/27 10:44:19;;;;;;;;;40.00;35.50;;;;;8.96;58.49;102930.53;5110615;27;49996;-67
2022/01/27 10:47:10;;;;;;;;;45.75;39.75;;;;;9.22;58.83;102967.94;5110479;27;49793;-67
2022/01/27 10:49:44;;;;;;;;;48.00;37.25;;;;;9.21;58.21;102953.03;5122830;27;50122;-68
2022/01/27 10:52:16;;;;;;;;;45.00;34.50;;;;;9.24;58.42;102956.72;5111427;27;50181;-65
2022/01/27 10:54:49;;;;;;;;;47.00;38.00;;;;;9.14;58.21;102934.31;5110908;27;50025;-67
2022/01/27 10:57:16;;;;;;;;;48.25;40.00;;;;;9.32;57.81;102968.59;5110533;27;49770;-67
2022/01/27 10:59:43;;;;;;;;;39.50;35.00;;;;;9.45;58.06;102978.09;5092443;27;49821;-67
2022/01/27 11:02:12;;;;;;;;;47.00;40.50;;;;;9.48;57.95;102982.66;5111196;27;49844;-69
2022/01/27 11:04:43;;;;;;;;;46.75;38.25;;;;;9.44;57.69;102984.16;5120826;27;50379;-67
2022/01/27 11:07:11;;;;;;;;;50.25;39.25;;;;;9.32;57.95;102968.59;5129981;27;49695;-67
2022/01/27 11:09:39;;;;;;;;;50.00;40.75;;;;;9.35;58.16;102980.97;5113682;27;50011;-71
2022/01/27 11:12:13;;;;;;;;;48.75;38.00;;;;;9.08;58.37;102939.19;5112966;27;49669;-67
2022/01/27 11:14:39;;;;;;;;;42.00;37.00;;;;;9.20;57.51;102960.00;5113340;27;49933;-68
2022/01/27 11:17:07;;;;;;;;;44.75;38.00;;;;;9.32;57.72;102971.22;5111898;27;49766;-70
2022/01/27 11:22:42;;;;;;;;;44.00;37.75;;;;;9.41;58.40;102958.66;5114393;27;49734;-75
2022/01/27 11:25:50;;;;;;;;;50.50;38.50;;;;;9.48;58.14;102973.06;5111723;27;50732;-73
2022/01/27 11:27:59;;;;;;;;;42.25;37.50;;;;;9.48;58.14;102961.66;5133624;27;49643;-70
2022/01/27 11:31:14;;;;;;;;;44.00;39.00;;;;;9.58;57.70;102975.41;5115394;27;49824;-68
2022/01/27 11:33:44;;;;;;;;;55.75;42.50;;;;;9.58;58.18;102948.28;5116690;27;49656;-69
2022/01/27 11:36:12;;;;;;;;;38.50;36.75;;;;;9.68;57.64;102961.13;5113675;27;50910;-67
2022/01/27 11:38:42;;;;;;;;;51.25;42.25;;;;;9.73;57.64;102938.69;5114043;27;49748;-67
2022/01/27 11:41:34;;;;;;;;;48.75;40.75;;;;;9.92;57.37;102961.66;5113850;27;49747;-68
2022/01/27 11:44:36;;;;;;;;;43.75;31.00;;;;;9.86;57.52;102925.50;5129716;27;50590;-65
2022/01/27 11:47:07;;;;;;;;;56.75;43.75;;;;;10.01;57.85;102935.97;5071738;27;49914;-65
2022/01/27 11:50:11;;;;;;;;;43.00;37.00;;;;;10.07;56.58;102928.44;5117777;27;49883;-64
2022/01/27 11:52:54;;;;;;;;;44.50;38.75;;;;;10.06;55.97;102931.00;5114055;27;49989;-69
2022/01/27 11:55:23;;;;;;;;;48.50;40.00;;;;;10.14;56.46;102937.59;5112356;27;49652;-73
2022/01/27 11:57:49;;;;;;;;;53.75;44.25;;;;;10.16;56.41;102939.47;5113133;27;49880;-68
2022/01/27 12:00:18;;;;;;;;;42.25;37.00;;;;;10.18;56.66;102935.22;5114476;27;49730;-65
2022/01/27 12:03:01;;;;;;;;;45.50;40.25;;;;;10.18;56.77;102940.47;5133691;27;49845;-70
2022/01/27 12:05:30;;;;;;;;;51.75;39.50;;;;;10.04;56.53;102916.06;5135342;27;49813;-70
2022/01/27 12:08:18;;;;;;;;;52.25;41.50;;;;;10.22;56.13;102929.34;5133417;27;50667;-68
2022/01/27 12:11:01;;;;;;;;;46.00;40.25;;;;;10.15;57.00;102906.19;5133351;27;49831;-68
2022/01/27 12:13:33;;;;;;;;;53.50;41.75;;;;;10.36;56.91;102932.75;5131452;27;49684;-68
2022/01/27 12:19:10;;;;;;;;;56.75;41.25;;;;;10.42;56.47;102929.56;5113001;27;50527;-67